createdAt,value
2018-12-21T00:00:01.553Z,1010.18
2018-12-21T00:01:01.562Z,1010.18
2018-12-21T00:02:01.526Z,1010.17
2018-12-21T00:03:01.523Z,1010.24
2018-12-21T00:04:01.513Z,1010.20
2018-12-21T00:05:01.518Z,1010.18
2018-12-21T00:06:01.512Z,1010.15
2018-12-21T00:07:01.469Z,1010.06
2018-12-21T00:08:01.462Z,1010.11
2018-12-21T00:09:01.452Z,1010.16
2018-12-21T00:10:01.452Z,1010.12
2018-12-21T00:11:01.462Z,1010.10
2018-12-21T00:12:01.422Z,1010.16
2018-12-21T00:13:01.408Z,1010.08
2018-12-21T00:14:01.397Z,1010.07
2018-12-21T00:15:01.382Z,1010.10
2018-12-21T00:16:01.386Z,1010.13
2018-12-21T00:17:01.384Z,1010.07
2018-12-21T00:18:01.355Z,1010.07
2018-12-21T00:19:01.348Z,1010.02
2018-12-21T00:20:01.338Z,1010.05
2018-12-21T00:21:01.324Z,1010.08
2018-12-21T00:22:01.358Z,1010.05
2018-12-21T00:23:01.308Z,1010.07
2018-12-21T00:24:01.296Z,1009.96
2018-12-21T00:25:01.288Z,1010.01
2018-12-21T00:26:01.270Z,1010.03
2018-12-21T00:27:01.283Z,1010.02
2018-12-21T00:28:01.255Z,1009.99
2018-12-21T00:29:01.249Z,1009.98
2018-12-21T00:30:01.226Z,1009.94
2018-12-21T00:31:01.218Z,1009.95
2018-12-21T00:32:01.226Z,1009.98
2018-12-21T00:33:01.199Z,1009.91
2018-12-21T00:34:01.196Z,1009.89
2018-12-21T00:35:01.173Z,1009.92
2018-12-21T00:36:01.162Z,1009.90
2018-12-21T00:37:01.181Z,1009.88
2018-12-21T00:38:01.140Z,1009.92
2018-12-21T00:39:01.135Z,1009.91
2018-12-21T00:40:01.131Z,1009.89
2018-12-21T00:41:01.138Z,1009.88
2018-12-21T00:42:01.114Z,1009.82
2018-12-21T00:43:01.087Z,1009.85
2018-12-21T00:44:01.098Z,1009.83
2018-12-21T00:45:01.072Z,1009.83
2018-12-21T00:46:01.066Z,1009.85
2018-12-21T00:47:01.091Z,1009.89
2018-12-21T00:48:01.031Z,1009.85
2018-12-21T00:49:01.022Z,1009.83
2018-12-21T00:50:01.032Z,1009.88
2018-12-21T00:51:01.012Z,1009.89
2018-12-21T00:52:01.019Z,1009.93
2018-12-21T00:53:00.986Z,1009.91
2018-12-21T00:54:00.968Z,1009.85
2018-12-21T00:55:00.965Z,1009.93
2018-12-21T00:56:00.948Z,1009.86
2018-12-21T00:57:00.960Z,1009.85
2018-12-21T00:58:00.941Z,1009.86
2018-12-21T00:59:00.920Z,1009.87
2018-12-21T01:00:00.913Z,1009.88
2018-12-21T01:01:00.908Z,1009.91
2018-12-21T01:02:00.917Z,1009.91
2018-12-21T01:03:00.894Z,1009.91
2018-12-21T01:04:00.882Z,1009.92
2018-12-21T01:05:00.856Z,1009.90
2018-12-21T01:06:00.848Z,1009.95
2018-12-21T01:07:00.859Z,1009.95
2018-12-21T01:08:00.828Z,1009.99
2018-12-21T01:09:00.838Z,1009.97
2018-12-21T01:10:00.809Z,1009.97
2018-12-21T01:11:00.788Z,1009.94
2018-12-21T01:12:00.780Z,1010.00
2018-12-21T01:13:00.794Z,1009.94
2018-12-21T01:14:00.764Z,1009.94
2018-12-21T01:15:00.763Z,1009.99
2018-12-21T01:16:00.740Z,1009.96
2018-12-21T01:17:00.728Z,1009.99
2018-12-21T01:18:00.758Z,1009.97
2018-12-21T01:19:00.716Z,1009.97
2018-12-21T01:20:00.707Z,1010.02
2018-12-21T01:21:00.706Z,1010.05
2018-12-21T01:22:00.678Z,1010.06
2018-12-21T01:23:00.680Z,1010.10
2018-12-21T01:24:00.654Z,1010.07
2018-12-21T01:25:00.642Z,1010.11
2018-12-21T01:26:00.643Z,1010.05
2018-12-21T01:27:00.649Z,1010.12
2018-12-21T01:28:00.640Z,1010.06
2018-12-21T01:29:00.600Z,1010.15
2018-12-21T01:30:00.593Z,1010.01
2018-12-21T01:31:00.583Z,1010.06
2018-12-21T01:32:00.578Z,1010.04
2018-12-21T01:33:00.588Z,1009.96
2018-12-21T01:34:00.550Z,1009.98
2018-12-21T01:35:00.536Z,1009.95
2018-12-21T01:36:00.534Z,1009.96
2018-12-21T01:37:00.514Z,1009.95
2018-12-21T01:38:00.520Z,1009.94
2018-12-21T01:39:00.535Z,1009.94
2018-12-21T01:40:00.483Z,1009.88
2018-12-21T01:41:00.470Z,1009.87
2018-12-21T01:42:00.472Z,1009.87
2018-12-21T01:43:00.483Z,1009.89
2018-12-21T01:44:00.455Z,1009.88
2018-12-21T01:45:00.428Z,1009.87
2018-12-21T01:46:00.421Z,1009.87
2018-12-21T01:47:00.408Z,1009.80
2018-12-21T01:48:00.442Z,1009.80
2018-12-21T01:49:00.393Z,1009.81
2018-12-21T01:50:00.386Z,1009.80
2018-12-21T01:51:00.364Z,1009.83
2018-12-21T01:52:00.354Z,1009.77
2018-12-21T01:53:00.342Z,1009.78
2018-12-21T01:54:00.356Z,1009.80
2018-12-21T01:55:00.326Z,1009.72
2018-12-21T01:56:00.332Z,1009.70
2018-12-21T01:57:00.314Z,1009.72
2018-12-21T01:58:00.294Z,1009.74
2018-12-21T01:59:00.348Z,1009.70
2018-12-21T02:00:00.266Z,1009.68
2018-12-21T02:01:00.272Z,1009.72
2018-12-21T02:02:00.283Z,1009.70
2018-12-21T02:03:00.236Z,1009.74
2018-12-21T02:04:00.246Z,1009.72
2018-12-21T02:05:00.219Z,1009.76
2018-12-21T02:06:00.211Z,1009.73
2018-12-21T02:07:00.202Z,1009.70
2018-12-21T02:08:00.186Z,1009.72
2018-12-21T02:09:00.292Z,1009.62
2018-12-21T02:10:00.161Z,1009.62
2018-12-21T02:11:00.150Z,1009.59
2018-12-21T02:12:00.142Z,1009.63
2018-12-21T02:13:00.144Z,1009.59
2018-12-21T02:14:00.158Z,1009.62
2018-12-21T02:15:00.113Z,1009.63
2018-12-21T02:16:00.110Z,1009.61
2018-12-21T02:17:00.091Z,1009.62
2018-12-21T02:18:00.081Z,1009.57
2018-12-21T02:19:00.082Z,1009.59
2018-12-21T02:20:00.089Z,1009.61
2018-12-21T02:21:00.049Z,1009.59
2018-12-21T02:22:00.033Z,1009.61
2018-12-21T02:23:00.029Z,1009.53
2018-12-21T02:24:00.037Z,1009.56
2018-12-21T02:25:00.031Z,1009.48
2018-12-21T02:25:59.989Z,1009.47
2018-12-21T02:26:59.980Z,1009.51
2018-12-21T02:27:59.980Z,1009.50
2018-12-21T02:28:59.961Z,1009.49
2018-12-21T02:29:59.969Z,1009.48
2018-12-21T02:30:59.955Z,1009.47
2018-12-21T02:31:59.927Z,1009.46
2018-12-21T02:32:59.919Z,1009.47
2018-12-21T02:33:59.936Z,1009.46
2018-12-21T02:34:59.923Z,1009.47
2018-12-21T02:35:59.893Z,1009.51
2018-12-21T02:36:59.873Z,1009.51
2018-12-21T02:37:59.865Z,1009.47
2018-12-21T02:38:59.863Z,1009.48
2018-12-21T02:40:00.345Z,1009.50
2018-12-21T02:40:59.842Z,1009.50
2018-12-21T02:41:59.841Z,1009.50
2018-12-21T02:42:59.816Z,1009.51
2018-12-21T02:43:59.811Z,1009.47
2018-12-21T02:44:59.817Z,1009.47
2018-12-21T02:45:59.780Z,1009.46
2018-12-21T02:46:59.770Z,1009.50
2018-12-21T02:47:59.763Z,1009.53
2018-12-21T02:48:59.749Z,1009.56
2018-12-21T02:49:59.756Z,1009.50
2018-12-21T02:50:59.737Z,1009.46
2018-12-21T02:52:05.347Z,1009.51
2018-12-21T02:53:00.727Z,1009.42
2018-12-21T02:53:59.696Z,1009.51
2018-12-21T02:54:59.703Z,1009.47
2018-12-21T02:55:59.671Z,1009.44
2018-12-21T02:56:59.698Z,1009.44
2018-12-21T02:57:59.659Z,1009.46
2018-12-21T02:58:59.644Z,1009.43
2018-12-21T02:59:59.659Z,1009.46
2018-12-21T03:00:59.617Z,1009.43
2018-12-21T03:01:59.614Z,1009.40
2018-12-21T03:02:59.595Z,1009.42
2018-12-21T03:03:59.592Z,1009.44
2018-12-21T03:04:59.610Z,1009.35
2018-12-21T03:05:59.574Z,1009.41
2018-12-21T03:06:59.554Z,1009.38
2018-12-21T03:07:59.544Z,1009.35
2018-12-21T03:08:59.534Z,1009.33
2018-12-21T03:09:59.556Z,1009.29
2018-12-21T03:10:59.528Z,1009.32
2018-12-21T03:11:59.508Z,1009.32
2018-12-21T03:12:59.495Z,1009.33
2018-12-21T03:13:59.482Z,1009.27
2018-12-21T03:14:59.506Z,1009.30
2018-12-21T03:15:59.473Z,1009.28
2018-12-21T03:16:59.463Z,1009.23
2018-12-21T03:18:00.325Z,1009.27
2018-12-21T03:18:59.424Z,1009.25
2018-12-21T03:19:59.428Z,1009.26
2018-12-21T03:20:59.428Z,1009.25
2018-12-21T03:21:59.400Z,1009.25
2018-12-21T03:22:59.394Z,1009.23
2018-12-21T03:23:59.377Z,1009.22
2018-12-21T03:24:59.366Z,1009.21
2018-12-21T03:25:59.387Z,1009.19
2018-12-21T03:26:59.358Z,1009.23
2018-12-21T03:27:59.363Z,1009.19
2018-12-21T03:28:59.322Z,1009.23
2018-12-21T03:29:59.317Z,1009.25
2018-12-21T03:30:59.335Z,1009.19
2018-12-21T03:31:59.293Z,1009.25
2018-12-21T03:32:59.291Z,1009.20
2018-12-21T03:33:59.271Z,1009.22
2018-12-21T03:34:59.265Z,1009.26
2018-12-21T03:35:59.323Z,1009.22
2018-12-21T03:36:59.234Z,1009.21
2018-12-21T03:37:59.228Z,1009.19
2018-12-21T03:38:59.218Z,1009.18
2018-12-21T03:39:59.211Z,1009.22
2018-12-21T03:40:59.216Z,1009.13
2018-12-21T03:41:59.183Z,1009.15
2018-12-21T03:42:59.176Z,1009.10
2018-12-21T03:43:59.162Z,1009.10
2018-12-21T03:44:59.168Z,1009.09
2018-12-21T03:45:59.158Z,1009.07
2018-12-21T03:46:59.142Z,1009.03
2018-12-21T03:47:59.118Z,1009.09
2018-12-21T03:48:59.113Z,1009.10
2018-12-21T03:49:59.101Z,1009.12
2018-12-21T03:50:59.119Z,1009.09
2018-12-21T03:51:59.085Z,1009.03
2018-12-21T03:52:59.069Z,1009.03
2018-12-21T03:53:59.057Z,1009.00
2018-12-21T03:54:59.077Z,1008.98
2018-12-21T03:55:59.054Z,1008.94
2018-12-21T03:56:59.048Z,1008.91
2018-12-21T03:57:59.018Z,1008.91
2018-12-21T03:58:59.002Z,1008.90
2018-12-21T03:59:58.994Z,1008.87
2018-12-21T04:00:58.983Z,1008.91
2018-12-21T04:01:58.992Z,1008.89
2018-12-21T04:02:59.022Z,1008.92
2018-12-21T04:03:58.954Z,1008.92
2018-12-21T04:04:58.940Z,1008.86
2018-12-21T04:05:58.932Z,1008.89
2018-12-21T04:06:58.940Z,1008.87
2018-12-21T04:07:58.911Z,1008.88
2018-12-21T04:08:58.896Z,1008.86
2018-12-21T04:09:58.886Z,1008.86
2018-12-21T04:10:58.875Z,1008.86
2018-12-21T04:11:58.882Z,1008.84
2018-12-21T04:12:58.861Z,1008.82
2018-12-21T04:13:58.860Z,1008.79
2018-12-21T04:14:58.841Z,1008.81
2018-12-21T04:15:58.841Z,1008.76
2018-12-21T04:16:58.842Z,1008.83
2018-12-21T04:17:58.796Z,1008.79
2018-12-21T04:18:58.793Z,1008.80
2018-12-21T04:19:58.785Z,1008.84
2018-12-21T04:20:58.774Z,1008.82
2018-12-21T04:21:58.781Z,1008.82
2018-12-21T04:22:58.746Z,1008.78
2018-12-21T04:23:58.737Z,1008.81
2018-12-21T04:24:58.728Z,1008.81
2018-12-21T04:25:58.710Z,1008.85
2018-12-21T04:26:58.721Z,1008.82
2018-12-21T04:27:58.707Z,1008.81
2018-12-21T04:28:58.684Z,1008.82
2018-12-21T04:29:58.672Z,1008.75
2018-12-21T04:30:58.674Z,1008.75
2018-12-21T04:31:58.674Z,1008.79
2018-12-21T04:32:58.646Z,1008.79
2018-12-21T04:33:58.648Z,1008.79
2018-12-21T04:34:58.620Z,1008.83
2018-12-21T04:35:58.610Z,1008.73
2018-12-21T04:36:58.616Z,1008.80
2018-12-21T04:37:58.593Z,1008.79
2018-12-21T04:38:58.579Z,1008.77
2018-12-21T04:39:58.584Z,1008.79
2018-12-21T04:40:58.560Z,1008.79
2018-12-21T04:41:58.574Z,1008.78
2018-12-21T04:42:58.544Z,1008.84
2018-12-21T04:43:58.525Z,1008.82
2018-12-21T04:44:58.512Z,1008.79
2018-12-21T04:45:58.501Z,1008.81
2018-12-21T04:46:58.490Z,1008.75
2018-12-21T04:47:58.502Z,1008.74
2018-12-21T04:48:58.481Z,1008.78
2018-12-21T04:49:58.460Z,1008.75
2018-12-21T04:50:58.458Z,1008.74
2018-12-21T04:51:58.439Z,1008.73
2018-12-21T04:52:58.451Z,1008.70
2018-12-21T04:53:58.421Z,1008.72
2018-12-21T04:54:58.408Z,1008.66
2018-12-21T04:55:58.398Z,1008.67
2018-12-21T04:56:58.389Z,1008.66
2018-12-21T04:57:58.414Z,1008.65
2018-12-21T04:58:58.367Z,1008.63
2018-12-21T04:59:58.368Z,1008.67
2018-12-21T05:00:58.342Z,1008.62
2018-12-21T05:01:58.335Z,1008.58
2018-12-21T05:02:58.341Z,1008.54
2018-12-21T05:03:58.315Z,1008.58
2018-12-21T05:04:58.311Z,1008.63
2018-12-21T05:05:58.294Z,1008.58
2018-12-21T05:06:58.278Z,1008.53
2018-12-21T05:07:58.288Z,1008.59
2018-12-21T05:08:58.281Z,1008.56
2018-12-21T05:09:58.250Z,1008.55
2018-12-21T05:10:58.239Z,1008.53
2018-12-21T05:11:58.225Z,1008.51
2018-12-21T05:12:58.232Z,1008.56
2018-12-21T05:13:58.210Z,1008.54
2018-12-21T05:14:58.192Z,1008.56
2018-12-21T05:15:58.178Z,1008.52
2018-12-21T05:16:58.172Z,1008.49
2018-12-21T05:17:58.179Z,1008.53
2018-12-21T05:18:58.152Z,1008.52
2018-12-21T05:19:58.144Z,1008.52
2018-12-21T05:20:58.132Z,1008.50
2018-12-21T05:21:58.158Z,1008.50
2018-12-21T05:22:58.124Z,1008.46
2018-12-21T05:23:58.104Z,1008.51
2018-12-21T05:24:58.090Z,1008.46
2018-12-21T05:25:58.079Z,1008.47
2018-12-21T05:26:58.074Z,1008.47
2018-12-21T05:27:58.100Z,1008.43
2018-12-21T05:28:58.052Z,1008.43
2018-12-21T05:29:58.029Z,1008.49
2018-12-21T05:30:58.027Z,1008.46
2018-12-21T05:31:58.020Z,1008.44
2018-12-21T05:32:57.998Z,1008.50
2018-12-21T05:33:58.007Z,1008.43
2018-12-21T05:34:57.985Z,1008.44
2018-12-21T05:35:57.967Z,1008.42
2018-12-21T05:36:57.965Z,1008.40
2018-12-21T05:37:57.955Z,1008.47
2018-12-21T05:38:57.949Z,1008.38
2018-12-21T05:39:57.937Z,1008.41
2018-12-21T05:40:57.917Z,1008.43
2018-12-21T05:41:57.910Z,1008.38
2018-12-21T05:42:57.902Z,1008.36
2018-12-21T05:43:57.907Z,1008.31
2018-12-21T05:44:57.871Z,1008.30
2018-12-21T05:45:57.867Z,1008.33
2018-12-21T05:46:57.854Z,1008.31
2018-12-21T05:47:57.844Z,1008.31
2018-12-21T05:48:57.849Z,1008.27
2018-12-21T05:49:57.823Z,1008.25
2018-12-21T05:50:57.807Z,1008.25
2018-12-21T05:51:57.805Z,1008.26
2018-12-21T05:53:00.909Z,1008.25
2018-12-21T05:53:57.799Z,1008.22
2018-12-21T05:54:57.767Z,1008.23
2018-12-21T05:55:57.757Z,1008.15
2018-12-21T05:56:57.754Z,1008.17
2018-12-21T05:57:57.748Z,1008.13
2018-12-21T05:58:57.754Z,1008.15
2018-12-21T05:59:57.718Z,1008.15
2018-12-21T06:00:57.709Z,1008.15
2018-12-21T06:01:57.692Z,1008.13
2018-12-21T06:02:57.685Z,1008.13
2018-12-21T06:03:57.692Z,1008.05
2018-12-21T06:04:57.657Z,1008.01
2018-12-21T06:05:57.657Z,1007.96
2018-12-21T06:06:57.646Z,1007.99
2018-12-21T06:07:57.629Z,1007.97
2018-12-21T06:08:57.643Z,1007.93
2018-12-21T06:09:57.612Z,1007.96
2018-12-21T06:10:57.596Z,1007.94
2018-12-21T06:11:57.596Z,1007.86
2018-12-21T06:12:57.588Z,1007.88
2018-12-21T06:13:57.569Z,1007.90
2018-12-21T06:14:57.598Z,1007.86
2018-12-21T06:15:57.546Z,1007.83
2018-12-21T06:16:57.534Z,1007.81
2018-12-21T06:17:57.532Z,1007.79
2018-12-21T06:18:57.527Z,1007.78
2018-12-21T06:19:57.531Z,1007.81
2018-12-21T06:20:57.494Z,1007.79
2018-12-21T06:21:57.479Z,1007.77
2018-12-21T06:22:57.472Z,1007.73
2018-12-21T06:23:57.468Z,1007.72
2018-12-21T06:24:57.476Z,1007.73
2018-12-21T06:25:57.439Z,1007.70
2018-12-21T06:26:57.437Z,1007.65
2018-12-21T06:27:57.418Z,1007.60
2018-12-21T06:28:57.414Z,1007.58
2018-12-21T06:29:57.540Z,1007.56
2018-12-21T06:30:57.384Z,1007.56
2018-12-21T06:31:57.380Z,1007.54
2018-12-21T06:32:57.363Z,1007.48
2018-12-21T06:33:57.361Z,1007.49
2018-12-21T06:34:57.370Z,1007.42
2018-12-21T06:35:57.335Z,1007.40
2018-12-21T06:36:57.325Z,1007.39
2018-12-21T06:37:57.315Z,1007.38
2018-12-21T06:38:57.312Z,1007.33
2018-12-21T06:39:57.305Z,1007.36
2018-12-21T06:40:57.280Z,1007.37
2018-12-21T06:41:57.280Z,1007.37
2018-12-21T06:42:57.266Z,1007.36
2018-12-21T06:43:57.253Z,1007.39
2018-12-21T06:44:57.271Z,1007.37
2018-12-21T06:45:57.231Z,1007.37
2018-12-21T06:46:57.221Z,1007.40
2018-12-21T06:47:57.215Z,1007.40
2018-12-21T06:48:57.197Z,1007.46
2018-12-21T06:49:57.204Z,1007.43
2018-12-21T06:50:57.174Z,1007.43
2018-12-21T06:51:57.166Z,1007.38
2018-12-21T06:52:57.159Z,1007.41
2018-12-21T06:53:57.142Z,1007.32
2018-12-21T06:54:57.150Z,1007.33
2018-12-21T06:55:57.126Z,1007.31
2018-12-21T06:56:57.113Z,1007.27
2018-12-21T06:57:57.102Z,1007.30
2018-12-21T06:58:57.095Z,1007.30
2018-12-21T06:59:57.101Z,1007.29
2018-12-21T07:00:57.067Z,1007.24
2018-12-21T07:01:57.058Z,1007.25
2018-12-21T07:02:57.110Z,1007.26
2018-12-21T07:03:57.039Z,1007.20
2018-12-21T07:04:57.055Z,1007.23
2018-12-21T07:05:57.014Z,1007.19
2018-12-21T07:06:57.005Z,1007.16
2018-12-21T07:07:56.993Z,1007.17
2018-12-21T07:08:56.990Z,1007.20
2018-12-21T07:09:56.969Z,1007.15
2018-12-21T07:10:56.973Z,1007.13
2018-12-21T07:11:56.947Z,1007.14
2018-12-21T07:12:56.941Z,1007.15
2018-12-21T07:13:56.935Z,1007.11
2018-12-21T07:14:56.925Z,1007.06
2018-12-21T07:15:57.018Z,1007.10
2018-12-21T07:16:56.903Z,1007.12
2018-12-21T07:17:56.890Z,1007.06
2018-12-21T07:18:56.879Z,1007.06
2018-12-21T07:19:56.870Z,1007.04
2018-12-21T07:20:56.873Z,1007.06
2018-12-21T07:21:56.844Z,1007.04
2018-12-21T07:22:56.841Z,1007.03
2018-12-21T07:23:56.828Z,1007.01
2018-12-21T07:24:56.813Z,1006.98
2018-12-21T07:25:56.813Z,1007.01
2018-12-21T07:26:56.794Z,1006.98
2018-12-21T07:27:56.787Z,1006.95
2018-12-21T07:28:56.778Z,1006.94
2018-12-21T07:29:56.762Z,1006.94
2018-12-21T07:30:56.763Z,1006.99
2018-12-21T07:31:56.735Z,1006.99
2018-12-21T07:32:56.727Z,1007.01
2018-12-21T07:33:56.728Z,1006.95
2018-12-21T07:34:56.721Z,1006.94
2018-12-21T07:35:56.716Z,1006.89
2018-12-21T07:36:56.685Z,1006.86
2018-12-21T07:37:56.678Z,1006.86
2018-12-21T07:38:56.667Z,1006.91
2018-12-21T07:39:56.665Z,1006.90
2018-12-21T07:40:57.853Z,1006.92
2018-12-21T07:41:56.635Z,1006.92
2018-12-21T07:42:56.617Z,1006.90
2018-12-21T07:43:56.615Z,1006.84
2018-12-21T07:44:56.609Z,1006.86
2018-12-21T07:45:56.596Z,1006.90
2018-12-21T07:46:56.605Z,1006.85
2018-12-21T07:47:56.579Z,1006.88
2018-12-21T07:48:56.562Z,1006.81
2018-12-21T07:49:56.557Z,1006.83
2018-12-21T07:50:56.533Z,1006.76
2018-12-21T07:51:56.545Z,1006.80
2018-12-21T07:52:56.531Z,1006.84
2018-12-21T07:53:56.507Z,1006.78
2018-12-21T07:54:56.495Z,1006.72
2018-12-21T07:55:56.487Z,1006.73
2018-12-21T07:56:56.498Z,1006.74
2018-12-21T07:57:58.576Z,1006.86
2018-12-21T07:58:57.339Z,1006.74
2018-12-21T07:59:56.441Z,1006.79
2018-12-21T08:00:56.427Z,1006.70
2018-12-21T08:01:56.437Z,1006.68
2018-12-21T08:02:56.412Z,1006.69
2018-12-21T08:03:56.412Z,1006.70
2018-12-21T08:04:56.387Z,1006.69
2018-12-21T08:05:56.378Z,1006.76
2018-12-21T08:06:56.405Z,1006.68
2018-12-21T08:07:56.354Z,1006.64
2018-12-21T08:08:56.362Z,1006.66
2018-12-21T08:09:56.347Z,1006.62
2018-12-21T08:10:56.351Z,1006.64
2018-12-21T08:11:56.341Z,1006.57
2018-12-21T08:12:56.300Z,1006.65
2018-12-21T08:13:56.294Z,1006.59
2018-12-21T08:14:56.288Z,1006.57
2018-12-21T08:15:56.270Z,1006.56
2018-12-21T08:16:56.292Z,1006.56
2018-12-21T08:17:56.318Z,1006.54
2018-12-21T08:18:56.238Z,1006.56
2018-12-21T08:19:56.230Z,1006.50
2018-12-21T08:20:56.224Z,1006.52
2018-12-21T08:21:56.229Z,1006.44
2018-12-21T08:22:56.192Z,1006.40
2018-12-21T08:23:56.183Z,1006.37
2018-12-21T08:24:56.178Z,1006.37
2018-12-21T08:25:56.168Z,1006.33
2018-12-21T08:26:56.183Z,1006.34
2018-12-21T08:27:56.145Z,1006.34
2018-12-21T08:28:56.138Z,1006.30
2018-12-21T08:29:56.126Z,1006.36
2018-12-21T08:30:56.131Z,1006.32
2018-12-21T08:31:56.126Z,1006.36
2018-12-21T08:32:56.094Z,1006.31
2018-12-21T08:33:56.080Z,1006.32
2018-12-21T08:34:56.065Z,1006.31
2018-12-21T08:35:56.065Z,1006.30
2018-12-21T08:36:56.052Z,1006.18
2018-12-21T08:37:56.068Z,1006.20
2018-12-21T08:38:56.032Z,1006.16
2018-12-21T08:39:56.024Z,1006.17
2018-12-21T08:40:56.006Z,1006.14
2018-12-21T08:41:55.993Z,1006.05
2018-12-21T08:42:56.002Z,1006.04
2018-12-21T08:43:55.981Z,1006.07
2018-12-21T08:44:55.968Z,1006.00
2018-12-21T08:45:55.963Z,1006.06
2018-12-21T08:46:55.937Z,1006.08
2018-12-21T08:47:55.947Z,1006.05
2018-12-21T08:48:55.925Z,1006.01
2018-12-21T08:49:55.917Z,1005.94
2018-12-21T08:50:55.913Z,1005.88
2018-12-21T08:51:55.887Z,1005.88
2018-12-21T08:52:55.906Z,1005.85
2018-12-21T08:53:55.867Z,1005.95
2018-12-21T08:54:56.366Z,1005.95
2018-12-21T08:55:55.849Z,1005.99
2018-12-21T08:56:55.835Z,1006.00
2018-12-21T08:57:55.843Z,1006.04
2018-12-21T08:58:55.821Z,1005.99
2018-12-21T08:59:55.800Z,1006.04
2018-12-21T09:00:55.796Z,1005.97
2018-12-21T09:01:55.788Z,1005.96
2018-12-21T09:02:55.807Z,1005.97
2018-12-21T09:03:55.761Z,1005.93
2018-12-21T09:04:55.745Z,1005.99
2018-12-21T09:05:55.758Z,1005.99
2018-12-21T09:06:55.729Z,1005.98
2018-12-21T09:07:55.755Z,1005.91
2018-12-21T09:08:55.723Z,1005.93
2018-12-21T09:09:55.700Z,1005.96
2018-12-21T09:10:55.683Z,1005.94
2018-12-21T09:11:55.681Z,1005.96
2018-12-21T09:12:55.698Z,1005.92
2018-12-21T09:13:55.662Z,1005.89
2018-12-21T09:14:55.647Z,1005.86
2018-12-21T09:15:55.636Z,1005.88
2018-12-21T09:16:55.618Z,1005.88
2018-12-21T09:17:55.629Z,1005.83
2018-12-21T09:18:55.622Z,1005.83
2018-12-21T09:19:55.598Z,1005.79
2018-12-21T09:20:55.585Z,1005.79
2018-12-21T09:21:55.574Z,1005.77
2018-12-21T09:22:55.560Z,1005.74
2018-12-21T09:24:01.214Z,1005.76
2018-12-21T09:24:56.554Z,1005.71
2018-12-21T09:25:55.539Z,1005.69
2018-12-21T09:26:55.517Z,1005.70
2018-12-21T09:27:55.506Z,1005.65
2018-12-21T09:28:55.916Z,1005.62
2018-12-21T09:29:55.484Z,1005.59
2018-12-21T09:30:55.482Z,1005.55
2018-12-21T09:31:55.482Z,1005.53
2018-12-21T09:32:55.454Z,1005.54
2018-12-21T09:33:55.459Z,1005.50
2018-12-21T09:34:55.438Z,1005.52
2018-12-21T09:35:55.418Z,1005.46
2018-12-21T09:36:55.425Z,1005.49
2018-12-21T09:37:55.404Z,1005.43
2018-12-21T09:38:55.404Z,1005.38
2018-12-21T09:39:55.377Z,1005.34
2018-12-21T09:40:55.422Z,1005.35
2018-12-21T09:41:55.356Z,1005.30
2018-12-21T09:42:55.385Z,1005.31
2018-12-21T09:43:55.362Z,1005.31
2018-12-21T09:44:55.332Z,1005.31
2018-12-21T09:45:55.315Z,1005.27
2018-12-21T09:46:55.329Z,1005.23
2018-12-21T09:47:55.297Z,1005.17
2018-12-21T09:48:55.302Z,1005.18
2018-12-21T09:49:55.272Z,1005.16
2018-12-21T09:50:55.264Z,1005.12
2018-12-21T09:51:55.250Z,1005.14
2018-12-21T09:52:55.241Z,1005.10
2018-12-21T09:53:55.242Z,1005.06
2018-12-21T09:54:55.228Z,1005.08
2018-12-21T09:55:55.205Z,1005.05
2018-12-21T09:56:55.204Z,1005.01
2018-12-21T09:57:55.188Z,1005.05
2018-12-21T09:58:55.208Z,1004.96
2018-12-21T09:59:55.173Z,1004.97
2018-12-21T10:00:55.150Z,1004.93
2018-12-21T10:01:55.152Z,1004.89
2018-12-21T10:02:55.132Z,1004.94
2018-12-21T10:03:55.155Z,1004.95
2018-12-21T10:04:55.114Z,1004.91
2018-12-21T10:05:55.114Z,1004.86
2018-12-21T10:06:55.086Z,1004.91
2018-12-21T10:07:55.080Z,1004.85
2018-12-21T10:08:55.094Z,1004.86
2018-12-21T10:09:55.066Z,1004.79
2018-12-21T10:10:55.045Z,1004.74
2018-12-21T10:11:55.045Z,1004.75
2018-12-21T10:12:55.026Z,1004.68
2018-12-21T10:13:55.016Z,1004.64
2018-12-21T10:14:55.024Z,1004.56
2018-12-21T10:15:55.006Z,1004.56
2018-12-21T10:16:54.989Z,1004.52
2018-12-21T10:17:54.980Z,1004.51
2018-12-21T10:18:54.967Z,1004.47
2018-12-21T10:19:54.976Z,1004.42
2018-12-21T10:20:54.937Z,1004.40
2018-12-21T10:21:54.939Z,1004.38
2018-12-21T10:22:54.928Z,1004.35
2018-12-21T10:23:54.915Z,1004.25
2018-12-21T10:24:54.933Z,1004.31
2018-12-21T10:25:54.886Z,1004.24
2018-12-21T10:26:54.874Z,1004.27
2018-12-21T10:27:54.861Z,1004.20
2018-12-21T10:28:54.860Z,1004.21
2018-12-21T10:29:54.867Z,1004.25
2018-12-21T10:30:54.830Z,1004.15
2018-12-21T10:31:54.821Z,1004.16
2018-12-21T10:32:54.810Z,1004.04
2018-12-21T10:33:54.840Z,1004.07
2018-12-21T10:34:54.812Z,1004.07
2018-12-21T10:35:54.806Z,1004.03
2018-12-21T10:36:54.769Z,1003.92
2018-12-21T10:37:54.759Z,1003.95
2018-12-21T10:38:54.746Z,1003.89
2018-12-21T10:39:54.761Z,1003.86
2018-12-21T10:40:54.740Z,1003.88
2018-12-21T10:41:54.714Z,1003.80
2018-12-21T10:42:54.712Z,1003.80
2018-12-21T10:43:54.690Z,1003.84
2018-12-21T10:44:54.716Z,1003.74
2018-12-21T10:45:54.675Z,1003.70
2018-12-21T10:46:54.673Z,1003.67
2018-12-21T10:47:54.646Z,1003.58
2018-12-21T10:48:54.640Z,1003.64
2018-12-21T10:49:54.702Z,1003.59
2018-12-21T10:50:54.618Z,1003.58
2018-12-21T10:51:54.606Z,1003.52
2018-12-21T10:52:54.596Z,1003.48
2018-12-21T10:53:54.582Z,1003.52
2018-12-21T10:54:54.626Z,1003.50
2018-12-21T10:55:54.572Z,1003.40
2018-12-21T10:56:54.557Z,1003.39
2018-12-21T10:57:54.542Z,1003.40
2018-12-21T10:58:54.532Z,1003.36
2018-12-21T10:59:54.520Z,1003.35
2018-12-21T11:00:54.528Z,1003.28
2018-12-21T11:01:54.509Z,1003.30
2018-12-21T11:02:54.489Z,1003.21
2018-12-21T11:03:54.492Z,1003.20
2018-12-21T11:04:54.466Z,1003.18
2018-12-21T11:05:54.488Z,1003.15
2018-12-21T11:06:54.446Z,1003.20
2018-12-21T11:07:54.451Z,1003.20
2018-12-21T11:08:54.430Z,1003.10
2018-12-21T11:09:54.424Z,1003.15
2018-12-21T11:10:54.451Z,1003.08
2018-12-21T11:11:54.511Z,1003.03
2018-12-21T11:12:54.378Z,1003.02
2018-12-21T11:13:54.366Z,1002.92
2018-12-21T11:14:54.368Z,1002.93
2018-12-21T11:15:54.415Z,1002.91
2018-12-21T11:16:54.356Z,1002.92
2018-12-21T11:17:54.328Z,1002.87
2018-12-21T11:18:54.348Z,1002.87
2018-12-21T11:19:54.310Z,1002.82
2018-12-21T11:20:54.314Z,1002.82
2018-12-21T11:21:54.292Z,1002.75
2018-12-21T11:22:54.272Z,1002.71
2018-12-21T11:23:54.264Z,1002.65
2018-12-21T11:24:54.263Z,1002.59
2018-12-21T11:25:54.260Z,1002.56
2018-12-21T11:26:54.241Z,1002.61
2018-12-21T11:27:54.230Z,1002.54
2018-12-21T11:28:54.214Z,1002.50
2018-12-21T11:29:54.197Z,1002.49
2018-12-21T11:30:54.210Z,1002.43
2018-12-21T11:31:54.179Z,1002.43
2018-12-21T11:32:54.179Z,1002.44
2018-12-21T11:33:54.172Z,1002.40
2018-12-21T11:34:55.019Z,1002.43
2018-12-21T11:35:54.421Z,1002.34
2018-12-21T11:36:54.133Z,1002.26
2018-12-21T11:37:54.114Z,1002.26
2018-12-21T11:38:54.116Z,1002.27
2018-12-21T11:39:54.103Z,1002.23
2018-12-21T11:40:54.101Z,1002.15
2018-12-21T11:41:54.079Z,1002.12
2018-12-21T11:42:54.069Z,1002.06
2018-12-21T11:43:54.056Z,1002.00
2018-12-21T11:44:54.060Z,1002.01
2018-12-21T11:45:54.043Z,1001.95
2018-12-21T11:46:54.014Z,1001.94
2018-12-21T11:47:54.010Z,1001.93
2018-12-21T11:48:53.997Z,1001.93
2018-12-21T11:49:53.989Z,1001.80
2018-12-21T11:50:53.992Z,1001.78
2018-12-21T11:51:53.984Z,1001.75
2018-12-21T11:52:53.951Z,1001.70
2018-12-21T11:53:53.945Z,1001.63
2018-12-21T11:54:53.943Z,1001.58
2018-12-21T11:55:53.947Z,1001.58
2018-12-21T11:56:53.913Z,1001.55
2018-12-21T11:57:53.933Z,1001.58
2018-12-21T11:58:53.891Z,1001.52
2018-12-21T11:59:53.877Z,1001.59
2018-12-21T12:00:53.884Z,1001.52
2018-12-21T12:01:53.872Z,1001.52
2018-12-21T12:02:53.847Z,1001.44
2018-12-21T12:03:53.835Z,1001.49
2018-12-21T12:04:53.835Z,1001.51